Time;durP1;ratioP1;P1;durP2;ratioP2;P2;SDS_P1;SDS_P2;PMS_P1;PMS_P2;Temp;Humidity;BMP_temperature;BMP_pressure;BME280_temperature;BME280_humidity;BME280_pressure;Samples;Min_cycle;Max_cycle;Signal;HPM_P1;HPM_P2
2021/04/05 00:01:12;;;;;;;3.00;2.53;;;18.60;48.40;;;;;;10489599;28;20227;-71
2021/04/05 00:06:34;;;;;;;3.67;2.40;;;18.60;48.50;;;;;;10498359;28;20184;-71
2021/04/05 00:11:56;;;;;;;3.63;2.60;;;18.50;48.50;;;;;;10496166;28;20208;-70
2021/04/05 00:17:19;;;;;;;3.67;2.47;;;18.50;48.50;;;;;;10458463;28;20193;-71
2021/04/05 00:22:41;;;;;;;4.53;2.20;;;18.60;48.50;;;;;;10483433;28;20224;-71
2021/04/05 00:28:03;;;;;;;2.93;2.37;;;18.60;48.50;;;;;;10494270;28;20223;-70
2021/04/05 00:33:26;;;;;;;2.53;2.30;;;18.60;48.50;;;;;;10455967;28;20186;-71
2021/04/05 00:38:48;;;;;;;4.20;2.63;;;18.60;48.50;;;;;;10456204;28;20212;-70
2021/04/05 00:44:09;;;;;;;2.73;2.40;;;18.60;48.50;;;;;;10457480;28;20224;-70
2021/04/05 00:49:32;;;;;;;3.33;2.50;;;18.60;48.50;;;;;;10462347;28;20687;-72
2021/04/05 00:54:54;;;;;;;3.37;2.40;;;18.60;48.50;;;;;;10496387;28;20188;-71
2021/04/05 01:00:20;;;;;;;3.23;2.30;;;18.60;48.50;;;;;;10495306;28;20213;-69
2021/04/05 01:05:42;;;;;;;2.60;2.20;;;18.60;48.50;;;;;;10495063;28;20218;-70
2021/04/05 01:11:05;;;;;;;3.53;2.47;;;18.60;48.60;;;;;;10494949;28;20219;-70
2021/04/05 01:16:28;;;;;;;2.83;2.20;;;18.60;48.50;;;;;;10494564;28;20197;-71
2021/04/05 01:21:51;;;;;;;3.00;2.47;;;18.60;48.50;;;;;;10459646;28;20213;-70
2021/04/05 01:27:12;;;;;;;2.97;2.40;;;18.60;48.60;;;;;;10453871;28;20200;-71
2021/04/05 01:32:34;;;;;;;2.97;2.00;;;18.60;48.60;;;;;;10452908;28;20197;-70
2021/04/05 01:37:57;;;;;;;2.40;2.13;;;18.60;48.60;;;;;;10489133;28;20247;-70
2021/04/05 01:43:19;;;;;;;2.70;2.30;;;18.60;48.60;;;;;;10471608;28;20220;-71
2021/04/05 01:48:41;;;;;;;2.40;2.20;;;18.60;48.60;;;;;;10452368;28;20224;-71
2021/04/05 01:54:04;;;;;;;3.50;2.37;;;18.60;48.60;;;;;;10460860;28;20197;-70
2021/04/05 01:59:26;;;;;;;3.50;2.53;;;18.60;48.70;;;;;;10492286;28;20227;-70
2021/04/05 02:04:48;;;;;;;2.83;2.00;;;18.60;49.20;;;;;;10493228;28;20711;-71
2021/04/05 02:10:16;;;;;;;3.83;2.30;;;18.60;48.60;;;;;;10493234;28;20227;-71
2021/04/05 02:15:38;;;;;;;2.07;1.87;;;18.60;48.60;;;;;;10492664;28;20193;-70
2021/04/05 02:20:59;;;;;;;3.30;2.40;;;18.50;48.60;;;;;;10492257;28;20709;-70
2021/04/05 02:26:24;;;;;;;3.67;2.27;;;18.60;48.70;;;;;;10490861;28;20227;-71
2021/04/05 02:31:46;;;;;;;2.10;1.80;;;18.60;48.60;;;;;;10452439;28;20216;-71
2021/04/05 02:37:08;;;;;;;2.20;2.00;;;18.60;48.60;;;;;;10454405;28;20205;-72
2021/04/05 02:42:31;;;;;;;3.70;2.07;;;18.60;48.70;;;;;;10466150;28;20208;-71
2021/04/05 02:47:55;;;;;;;3.13;2.10;;;18.50;48.60;;;;;;10494030;28;20220;-71
2021/04/05 02:53:18;;;;;;;2.97;2.03;;;18.60;48.70;;;;;;10499436;28;20184;-71
2021/04/05 02:58:42;;;;;;;3.57;2.00;;;18.60;48.70;;;;;;10499887;28;20707;-71
2021/04/05 03:04:04;;;;;;;2.13;1.93;;;18.50;48.60;;;;;;10495479;28;20217;-71
2021/04/05 03:09:26;;;;;;;3.20;2.00;;;18.60;48.80;;;;;;10459034;28;20588;-72
2021/04/05 03:14:49;;;;;;;2.57;1.77;;;18.50;48.80;;;;;;10459788;28;20812;-71
2021/04/05 03:20:16;;;;;;;2.57;1.93;;;18.60;48.80;;;;;;10493730;28;20226;-71
2021/04/05 03:25:37;;;;;;;2.50;1.80;;;18.50;48.80;;;;;;10499034;28;20220;-71
2021/04/05 03:31:06;;;;;;;2.90;2.03;;;18.50;48.80;;;;;;10497370;28;20216;-71
2021/04/05 03:36:32;;;;;;;2.43;1.83;;;18.50;49.40;;;;;;10473557;28;20248;-70
2021/04/05 03:41:58;;;;;;;3.17;1.77;;;18.60;48.80;;;;;;10467172;28;20217;-71
2021/04/05 03:47:28;;;;;;;2.40;1.70;;;18.60;48.60;;;;;;10499521;28;20185;-70
2021/04/05 03:52:52;;;;;;;2.60;2.07;;;18.70;48.60;;;;;;10498911;28;20246;-70
2021/04/05 03:58:18;;;;;;;2.20;1.73;;;18.70;48.50;;;;;;10489355;28;20224;-71
2021/04/05 04:03:49;;;;;;;2.50;1.97;;;18.70;48.60;;;;;;10456535;28;20219;-70
2021/04/05 04:09:13;;;;;;;2.10;1.80;;;18.70;48.60;;;;;;10473393;28;20243;-70
2021/04/05 04:14:37;;;;;;;3.13;2.00;;;18.70;48.70;;;;;;10495665;28;20188;-71
2021/04/05 04:20:04;;;;;;;2.17;1.77;;;18.70;48.80;;;;;;10497905;28;20216;-71
2021/04/05 04:25:27;;;;;;;3.47;1.63;;;18.70;48.70;;;;;;10496834;28;20250;-71
2021/04/05 04:30:55;;;;;;;1.70;1.60;;;18.70;48.60;;;;;;10479895;28;20603;-71
2021/04/05 04:36:23;;;;;;;2.80;1.90;;;18.70;48.50;;;;;;10491173;28;20568;-71
2021/04/05 04:41:46;;;;;;;1.83;1.67;;;18.80;48.60;;;;;;10488619;28;20719;-71
2021/04/05 04:47:08;;;;;;;2.20;1.60;;;18.80;48.60;;;;;;10454439;28;20546;-70
2021/04/05 04:52:31;;;;;;;2.47;1.70;;;18.80;48.70;;;;;;10455830;28;20193;-69
2021/04/05 04:57:55;;;;;;;3.13;1.70;;;18.80;48.70;;;;;;10455043;28;20244;-69
2021/04/05 05:03:18;;;;;;;2.33;1.60;;;18.80;48.60;;;;;;10455428;28;20227;-69
2021/04/05 05:08:42;;;;;;;3.07;1.83;;;18.80;48.60;;;;;;10493703;28;20213;-69
2021/04/05 05:14:05;;;;;;;3.60;1.90;;;18.80;48.60;;;;;;10479363;28;20653;-69
2021/04/05 05:19:28;;;;;;;3.27;1.70;;;18.80;48.70;;;;;;10453920;28;20621;-69
2021/04/05 05:24:52;;;;;;;2.07;1.60;;;18.80;48.80;;;;;;10454614;28;20264;-69
2021/04/05 05:30:20;;;;;;;2.13;1.40;;;18.80;48.80;;;;;;10458583;28;20219;-69
2021/04/05 05:35:42;;;;;;;2.63;1.63;;;18.80;48.80;;;;;;10475569;28;20283;-69
2021/04/05 05:41:13;;;;;;;2.50;1.77;;;18.80;48.80;;;;;;10464902;28;20287;-69
2021/04/05 05:46:42;;;;;;;2.20;1.43;;;18.80;48.80;;;;;;10452606;28;20263;-69
2021/04/05 05:52:18;;;;;;;2.30;1.30;;;18.90;48.90;;;;;;10454851;28;20221;-69
2021/04/05 05:57:48;;;;;;;2.27;1.50;;;18.80;49.00;;;;;;10453435;28;20596;-68
2021/04/05 06:03:32;;;;;;;1.17;1.07;;;18.90;48.90;;;;;;10453002;28;20716;-68
2021/04/05 06:09:07;;;;;;;2.90;1.10;;;18.90;48.90;;;;;;10452557;28;20730;-68
2021/04/05 06:15:06;;;;;;;1.20;1.10;;;18.90;48.80;;;;;;10476741;28;20185;-68
2021/04/05 06:20:34;;;;;;;1.40;1.30;;;18.90;48.80;;;;;;10407522;28;20308;-68
2021/04/05 06:26:03;;;;;;;1.13;1.00;;;18.90;48.80;;;;;;10485446;28;20217;-69
2021/04/05 06:31:56;;;;;;;1.67;1.20;;;18.90;48.80;;;;;;10452410;28;20221;-68
2021/04/05 06:37:27;;;;;;;1.07;0.97;;;18.90;48.80;;;;;;10483114;28;20310;-68
2021/04/05 06:43:12;;;;;;;1.87;1.20;;;18.90;48.60;;;;;;10475871;28;20209;-69
2021/04/05 06:49:08;;;;;;;1.10;1.00;;;18.90;48.80;;;;;;10452661;28;20220;-68
2021/04/05 06:55:20;;;;;;;1.17;0.90;;;18.90;48.80;;;;;;10451841;28;20197;-68
2021/04/05 07:01:08;;;;;;;9.50;1.40;;;18.90;48.70;;;;;;10450011;28;20416;-68
2021/04/05 07:06:43;;;;;;;1.70;1.10;;;19.80;46.90;;;;;;10450280;28;20216;-68
2021/04/05 07:12:47;;;;;;;1.03;0.80;;;19.20;48.30;;;;;;10472959;28;20719;-68
2021/04/05 07:18:32;;;;;;;1.27;0.90;;;19.00;48.60;;;;;;10452215;28;20581;-68
2021/04/05 07:24:14;;;;;;;1.33;1.00;;;19.00;48.80;;;;;;10463364;28;20208;-68
2021/04/05 07:29:44;;;;;;;1.50;0.97;;;19.00;48.80;;;;;;10470334;28;20564;-68
2021/04/05 07:35:14;;;;;;;0.80;0.80;;;19.00;48.80;;;;;;10480799;28;20272;-67
2021/04/05 07:40:47;;;;;;;1.77;1.10;;;19.00;49.00;;;;;;10469881;28;20209;-67
2021/04/05 07:46:22;;;;;;;2.40;1.20;;;19.00;49.00;;;;;;10467230;28;20224;-67
2021/04/05 07:51:49;;;;;;;2.20;1.00;;;19.00;48.90;;;;;;10497471;28;20216;-67
2021/04/05 07:57:22;;;;;;;3.67;1.03;;;19.00;48.90;;;;;;10497199;28;20659;-67
2021/04/05 08:02:51;;;;;;;1.43;0.90;;;19.00;48.80;;;;;;10497236;28;20310;-67
2021/04/05 08:08:48;;;;;;;2.47;0.97;;;19.00;48.70;;;;;;10497573;28;20213;-67
2021/04/05 08:14:22;;;;;;;1.37;0.90;;;19.00;48.70;;;;;;10383662;28;20201;-68
2021/04/05 08:19:51;;;;;;;3.70;1.00;;;19.00;48.70;;;;;;10456325;28;20213;-68
2021/04/05 08:25:25;;;;;;;2.20;0.80;;;19.00;48.60;;;;;;10456995;28;20209;-67
2021/04/05 08:31:00;;;;;;;1.97;0.90;;;19.00;48.70;;;;;;10493808;28;20274;-68
2021/04/05 08:36:33;;;;;;;1.43;1.10;;;19.00;48.80;;;;;;10497654;28;20196;-68
2021/04/05 08:42:05;;;;;;;1.90;0.90;;;19.00;48.60;;;;;;10496496;28;20496;-68
2021/04/05 08:47:30;;;;;;;3.40;1.10;;;19.00;48.60;;;;;;10488887;28;20193;-68
2021/04/05 08:52:54;;;;;;;1.47;1.00;;;19.00;48.70;;;;;;10497037;28;20569;-67
2021/04/05 08:58:26;;;;;;;1.13;0.80;;;19.00;48.80;;;;;;10455539;28;20229;-68
2021/04/05 09:03:49;;;;;;;1.57;1.23;;;19.10;48.90;;;;;;10454845;28;20209;-68
2021/04/05 09:09:13;;;;;;;1.87;0.97;;;19.00;48.70;;;;;;10461148;28;20636;-68
2021/04/05 09:15:05;;;;;;;2.53;0.93;;;19.00;48.60;;;;;;10480877;28;20676;-68
2021/04/05 09:20:47;;;;;;;1.87;0.83;;;19.00;48.50;;;;;;10472264;28;20702;-68
2021/04/05 09:26:34;;;;;;;2.70;0.90;;;19.00;48.60;;;;;;10453593;28;20221;-68
2021/04/05 09:32:41;;;;;;;2.37;1.03;;;19.00;48.60;;;;;;10453524;28;20722;-68
2021/04/05 09:38:39;;;;;;;1.37;0.73;;;19.10;48.50;;;;;;10453597;28;20213;-68
2021/04/05 09:44:31;;;;;;;2.17;0.73;;;19.00;48.50;;;;;;10448030;28;20626;-67
2021/04/05 09:50:07;;;;;;;1.97;0.87;;;19.10;48.50;;;;;;10453383;28;20221;-68
2021/04/05 09:55:32;;;;;;;1.67;0.73;;;19.10;48.40;;;;;;10452772;28;20185;-68
2021/04/05 10:00:57;;;;;;;0.97;0.70;;;19.00;48.40;;;;;;10454012;28;20683;-68
2021/04/05 10:06:20;;;;;;;1.10;0.70;;;19.10;48.40;;;;;;10451082;28;20232;-68
2021/04/05 10:11:44;;;;;;;1.73;0.73;;;19.10;48.40;;;;;;10452115;28;20213;-68
2021/04/05 10:17:06;;;;;;;1.70;0.83;;;19.10;48.30;;;;;;10450132;28;20710;-68
2021/04/05 10:22:29;;;;;;;1.23;0.70;;;19.00;48.20;;;;;;10479860;28;20200;-69
2021/04/05 10:27:56;;;;;;;2.90;0.77;;;19.10;48.30;;;;;;10488204;28;20224;-69
2021/04/05 10:33:25;;;;;;;1.80;0.73;;;19.10;48.50;;;;;;10492254;28;20289;-68
2021/04/05 10:38:47;;;;;;;3.77;0.87;;;19.20;49.10;;;;;;10493146;28;20687;-69
2021/04/05 10:44:14;;;;;;;1.60;0.70;;;19.20;48.50;;;;;;10464163;28;20221;-68
2021/04/05 10:49:39;;;;;;;1.90;0.90;;;19.20;48.50;;;;;;10467688;23;20460;-67
2021/04/05 10:55:02;;;;;;;3.53;1.20;;;19.80;46.80;;;;;;10452471;28;20420;-68
2021/04/05 11:00:32;;;;;;;3.27;1.20;;;20.40;45.50;;;;;;10451789;28;20217;-68
2021/04/05 11:05:58;;;;;;;3.30;0.93;;;19.50;47.40;;;;;;10450048;28;20692;-68
2021/04/05 11:11:22;;;;;;;1.83;0.90;;;19.30;48.60;;;;;;10454886;28;20225;-70
2021/04/05 11:16:51;;;;;;;4.70;1.23;;;19.20;48.20;;;;;;10457182;28;20204;-69
2021/04/05 11:22:17;;;;;;;6.13;1.63;;;19.20;48.30;;;;;;10457715;28;20696;-68
2021/04/05 11:27:46;;;;;;;4.40;1.67;;;19.20;48.40;;;;;;10460611;28;20197;-69
2021/04/05 11:33:11;;;;;;;6.37;2.00;;;19.20;48.30;;;;;;10429119;28;20564;-70
2021/04/05 11:38:38;;;;;;;5.63;1.80;;;19.10;47.90;;;;;;10411578;28;20217;-69
2021/04/05 11:44:02;;;;;;;3.77;1.77;;;19.10;48.00;;;;;;10427549;28;20217;-69
2021/04/05 11:49:30;;;;;;;6.27;1.70;;;19.10;47.50;;;;;;10444776;28;20232;-70
2021/04/05 11:54:56;;;;;;;5.33;1.50;;;19.10;47.40;;;;;;10411541;28;20268;-70
2021/04/05 12:00:24;;;;;;;6.50;1.70;;;19.10;47.50;;;;;;10411777;28;20592;-67
2021/04/05 12:05:55;;;;;;;3.93;1.30;;;19.10;47.90;;;;;;10410047;28;20629;-69
2021/04/05 12:11:18;;;;;;;3.70;1.40;;;19.10;47.90;;;;;;10424857;28;20304;-68
2021/04/05 12:16:42;;;;;;;2.50;1.10;;;19.20;48.00;;;;;;10418143;28;20201;-69
2021/04/05 12:22:07;;;;;;;5.00;1.80;;;19.20;47.90;;;;;;10447370;28;20216;-68
2021/04/05 12:27:32;;;;;;;4.47;1.30;;;19.20;47.90;;;;;;10452895;28;20266;-68
2021/04/05 12:32:56;;;;;;;4.00;1.60;;;19.20;47.80;;;;;;10455350;28;20612;-68
2021/04/05 12:38:26;;;;;;;3.73;1.47;;;19.20;48.00;;;;;;10455272;28;20694;-68
2021/04/05 12:43:52;;;;;;;2.60;1.00;;;19.20;48.10;;;;;;10428978;28;20210;-69
2021/04/05 12:49:18;;;;;;;4.33;1.20;;;19.20;48.00;;;;;;10413074;28;20291;-69
2021/04/05 12:54:48;;;;;;;1.77;1.07;;;19.20;48.00;;;;;;10413376;28;20193;-69
2021/04/05 13:00:20;;;;;;;5.97;1.20;;;19.20;48.00;;;;;;10423981;28;20221;-70
2021/04/05 13:05:47;;;;;;;2.30;0.90;;;19.20;47.80;;;;;;10452454;28;20217;-68
2021/04/05 13:11:23;;;;;;;2.37;1.20;;;19.20;47.70;;;;;;10454137;28;20848;-69
2021/04/05 13:16:53;;;;;;;2.70;1.40;;;19.20;47.70;;;;;;10452391;28;20203;-68
2021/04/05 13:22:18;;;;;;;2.20;0.80;;;19.20;47.60;;;;;;10452176;28;20713;-67
2021/04/05 13:27:48;;;;;;;13.50;1.20;;;19.20;47.50;;;;;;10453838;28;20201;-70
2021/04/05 13:33:15;;;;;;;2.83;1.30;;;19.20;47.60;;;;;;10452972;28;20415;-69
2021/04/05 13:38:40;;;;;;;2.43;1.07;;;19.80;46.40;;;;;;10439834;28;20209;-70
2021/04/05 13:44:11;;;;;;;2.20;0.93;;;19.50;47.00;;;;;;10449128;28;20225;-68
2021/04/05 13:49:39;;;;;;;2.00;0.80;;;19.40;47.30;;;;;;10448990;28;20249;-67
2021/04/05 13:55:06;;;;;;;1.83;1.00;;;19.40;47.50;;;;;;10435855;28;20185;-69
2021/04/05 14:00:34;;;;;;;1.73;0.80;;;19.40;47.50;;;;;;10394646;28;20232;-68
2021/04/05 14:06:00;;;;;;;4.87;0.77;;;19.40;47.50;;;;;;10395276;28;20217;-69
2021/04/05 14:11:29;;;;;;;1.90;0.90;;;19.40;47.60;;;;;;10415105;28;20371;-68
2021/04/05 14:16:59;;;;;;;1.67;0.80;;;19.40;47.60;;;;;;10409673;28;20562;-70
2021/04/05 14:22:32;;;;;;;2.23;0.80;;;19.40;47.80;;;;;;10410750;28;20592;-69
2021/04/05 14:28:00;;;;;;;2.00;0.90;;;19.30;48.00;;;;;;10396707;28;20268;-69
2021/04/05 14:33:27;;;;;;;1.27;0.70;;;19.30;47.90;;;;;;10409947;28;20216;-70
2021/04/05 14:38:53;;;;;;;2.13;0.70;;;19.30;48.00;;;;;;10410747;28;20213;-69
2021/04/05 14:44:17;;;;;;;1.30;0.70;;;19.30;48.00;;;;;;10425835;28;20213;-67
2021/04/05 14:49:42;;;;;;;1.23;0.70;;;19.30;48.00;;;;;;10444650;28;20217;-71
2021/04/05 14:55:06;;;;;;;1.33;0.80;;;19.30;48.00;;;;;;10444117;28;20284;-71
2021/04/05 15:00:30;;;;;;;1.60;0.67;;;19.30;48.00;;;;;;10458757;28;20636;-70
2021/04/05 15:05:56;;;;;;;1.03;0.43;;;19.30;48.00;;;;;;10459053;28;20733;-68
2021/04/05 15:11:20;;;;;;;1.53;0.70;;;19.30;48.40;;;;;;10458084;28;20217;-70
2021/04/05 15:16:43;;;;;;;1.97;0.70;;;19.30;48.20;;;;;;10461232;28;20197;-69
2021/04/05 15:22:09;;;;;;;4.10;0.60;;;19.30;48.20;;;;;;10418972;28;20218;-72
2021/04/05 15:27:33;;;;;;;1.63;0.70;;;19.30;48.10;;;;;;10412422;28;20213;-69
2021/04/05 15:32:58;;;;;;;3.93;0.80;;;19.30;47.90;;;;;;10411774;28;20264;-70
2021/04/05 15:38:28;;;;;;;3.27;0.80;;;19.30;47.90;;;;;;10411020;28;20277;-70
2021/04/05 15:43:57;;;;;;;2.70;1.00;;;19.30;47.90;;;;;;10410871;28;20236;-69
2021/04/05 15:49:23;;;;;;;2.73;0.90;;;19.40;48.00;;;;;;10409409;28;20573;-69
2021/04/05 15:54:48;;;;;;;1.30;0.60;;;19.40;47.90;;;;;;10412713;28;20241;-70
2021/04/05 16:00:13;;;;;;;2.13;0.80;;;19.40;47.90;;;;;;10410182;28;20728;-68
2021/04/05 16:05:44;;;;;;;1.20;0.63;;;19.40;47.90;;;;;;10414042;28;20700;-71
2021/04/05 16:11:12;;;;;;;2.83;0.93;;;19.40;47.90;;;;;;10414871;28;20235;-71
2021/04/05 16:16:41;;;;;;;2.23;0.60;;;19.40;47.80;;;;;;10450109;28;20679;-72
2021/04/05 16:22:06;;;;;;;2.10;1.00;;;19.40;47.90;;;;;;10454122;28;20306;-73
2021/04/05 16:27:31;;;;;;;2.67;0.90;;;19.40;47.80;;;;;;10456651;28;20217;-68
2021/04/05 16:32:53;;;;;;;2.53;1.10;;;19.40;47.90;;;;;;10454530;28;20727;-67
2021/04/05 16:38:23;;;;;;;3.83;0.90;;;19.40;47.90;;;;;;10456097;28;20201;-68
2021/04/05 16:43:49;;;;;;;1.90;0.67;;;19.40;47.90;;;;;;10456302;28;20217;-68
2021/04/05 16:49:15;;;;;;;2.20;0.70;;;19.40;47.90;;;;;;10452739;28;20225;-67
2021/04/05 16:54:41;;;;;;;1.70;0.90;;;19.40;47.90;;;;;;10473486;22;20232;-68
2021/04/05 17:00:10;;;;;;;3.23;0.90;;;19.40;47.90;;;;;;10453849;28;20197;-68
2021/04/05 17:05:35;;;;;;;1.90;0.90;;;19.40;47.90;;;;;;10493833;28;20228;-69
2021/04/05 17:11:01;;;;;;;1.97;0.93;;;19.40;47.90;;;;;;10493782;28;20196;-68
2021/04/05 17:16:29;;;;;;;2.23;0.80;;;19.40;47.90;;;;;;10495714;28;20195;-69
2021/04/05 17:21:51;;;;;;;2.37;0.97;;;19.40;47.90;;;;;;10495390;28;20220;-68
2021/04/05 17:27:16;;;;;;;1.93;0.70;;;19.40;47.90;;;;;;10495216;28;20208;-68
2021/04/05 17:32:42;;;;;;;2.03;1.00;;;19.40;47.90;;;;;;10492850;28;20219;-68
2021/04/05 17:38:09;;;;;;;1.10;0.50;;;19.40;47.90;;;;;;10493370;28;20192;-69
2021/04/05 17:43:35;;;;;;;2.57;0.93;;;19.40;47.90;;;;;;10469649;28;20217;-68
2021/04/05 17:49:08;;;;;;;1.83;1.00;;;19.40;47.90;;;;;;10468815;28;20196;-69
2021/04/05 17:54:40;;;;;;;1.87;0.83;;;19.40;47.90;;;;;;10494166;28;20568;-68
2021/04/05 18:00:08;;;;;;;1.83;0.87;;;19.40;47.90;;;;;;10492247;28;20204;-69
2021/04/05 18:05:41;;;;;;;2.37;0.90;;;19.40;47.90;;;;;;10493460;28;20768;-69
2021/04/05 18:11:16;;;;;;;2.43;0.80;;;19.40;47.90;;;;;;10475539;28;20221;-69
2021/04/05 18:16:56;;;;;;;1.63;0.90;;;19.40;47.90;;;;;;10466276;28;20207;-69
2021/04/05 18:22:31;;;;;;;1.53;0.90;;;19.40;47.80;;;;;;10490966;28;20216;-67
2021/04/05 18:28:03;;;;;;;1.73;0.93;;;19.40;47.80;;;;;;10491436;28;20327;-70
2021/04/05 18:33:37;;;;;;;2.70;1.10;;;19.40;47.80;;;;;;10490974;28;20477;-71
2021/04/05 18:39:02;;;;;;;1.63;0.80;;;20.00;46.30;;;;;;10492332;28;20756;-70
2021/04/05 18:44:26;;;;;;;2.37;1.00;;;19.60;47.30;;;;;;10461496;28;20272;-70
2021/04/05 18:49:57;;;;;;;3.03;1.20;;;19.50;47.60;;;;;;10450796;28;20772;-73
2021/04/05 18:55:22;;;;;;;6.27;1.20;;;19.90;46.70;;;;;;10475778;28;20224;-70
2021/04/05 19:00:48;;;;;;;2.10;1.00;;;19.60;47.50;;;;;;10491587;28;20256;-71
2021/04/05 19:06:20;;;;;;;3.93;0.90;;;19.50;47.80;;;;;;10485761;28;20225;-72
2021/04/05 19:12:17;;;;;;;3.40;1.00;;;19.40;47.90;;;;;;10468357;28;20640;-71
2021/04/05 19:18:01;;;;;;;1.43;1.00;;;19.40;48.00;;;;;;10418754;28;20202;-71
2021/04/05 19:23:34;;;;;;;2.10;0.80;;;19.40;48.00;;;;;;10451062;28;20275;-71
2021/04/05 19:29:21;;;;;;;2.63;0.97;;;19.40;48.10;;;;;;10471165;28;20189;-71
2021/04/05 19:34:58;;;;;;;1.80;0.97;;;19.40;48.00;;;;;;10476454;28;20248;-71
2021/04/05 19:40:36;;;;;;;2.40;1.00;;;19.40;48.10;;;;;;10473910;28;20193;-71
2021/04/05 19:46:10;;;;;;;2.60;1.00;;;19.40;48.20;;;;;;10477275;28;20220;-71
2021/04/05 19:51:46;;;;;;;2.23;1.33;;;19.40;48.10;;;;;;10474831;28;20224;-71
2021/04/05 19:57:21;;;;;;;1.73;1.30;;;19.40;48.10;;;;;;10478875;28;20184;-71
2021/04/05 20:03:10;;;;;;;2.83;1.60;;;19.40;48.20;;;;;;10475902;28;20213;-70
2021/04/05 20:08:44;;;;;;;2.87;1.10;;;19.40;48.20;;;;;;10476942;28;20860;-71
2021/04/05 20:14:34;;;;;;;1.53;1.10;;;19.40;48.20;;;;;;10478187;28;20606;-71
2021/04/05 20:20:01;;;;;;;2.50;1.40;;;19.40;48.20;;;;;;10473886;28;20207;-71
2021/04/05 20:25:34;;;;;;;3.40;1.10;;;19.40;48.20;;;;;;10478083;28;20208;-70
2021/04/05 20:31:14;;;;;;;5.50;1.33;;;19.40;48.10;;;;;;10472513;28;20201;-70
2021/04/05 20:36:56;;;;;;;2.03;1.30;;;19.40;48.10;;;;;;10474067;28;20188;-71
2021/04/05 20:42:25;;;;;;;3.70;1.40;;;19.40;48.20;;;;;;10475097;28;20209;-70
2021/04/05 20:47:55;;;;;;;2.90;1.43;;;19.30;48.20;;;;;;10477528;28;20224;-70
2021/04/05 20:53:23;;;;;;;2.07;1.47;;;19.30;48.30;;;;;;10474183;28;20221;-71
2021/04/05 20:58:52;;;;;;;1.97;1.27;;;19.30;48.30;;;;;;10455592;28;20196;-71
2021/04/05 21:04:15;;;;;;;1.40;1.10;;;19.30;48.90;;;;;;10453966;28;20213;-71
2021/04/05 21:09:38;;;;;;;3.60;1.30;;;19.20;48.40;;;;;;10453232;28;20545;-70
2021/04/05 21:15:04;;;;;;;2.83;1.00;;;19.20;48.30;;;;;;10454066;28;20213;-71
2021/04/05 21:20:33;;;;;;;1.43;0.90;;;19.20;48.40;;;;;;10453605;28;20196;-70
2021/04/05 21:25:56;;;;;;;3.77;1.23;;;19.20;48.90;;;;;;10452856;28;20217;-71
2021/04/05 21:31:22;;;;;;;2.37;1.20;;;19.20;48.30;;;;;;10452521;28;20219;-70
2021/04/05 21:36:48;;;;;;;2.13;1.00;;;19.20;48.30;;;;;;10459505;28;20200;-70
2021/04/05 21:42:18;;;;;;;1.70;1.10;;;19.20;48.30;;;;;;10482906;28;20213;-70
2021/04/05 21:47:45;;;;;;;2.03;0.97;;;19.20;48.30;;;;;;10456470;28;20263;-71
2021/04/05 21:53:11;;;;;;;1.70;1.10;;;19.20;48.30;;;;;;10491672;28;21015;-71
2021/04/05 21:58:38;;;;;;;1.93;0.97;;;19.20;48.30;;;;;;10493531;28;20231;-71
2021/04/05 22:04:01;;;;;;;1.70;0.83;;;19.20;48.30;;;;;;10465939;28;20227;-70
2021/04/05 22:09:28;;;;;;;1.43;1.00;;;19.20;48.40;;;;;;10452653;28;20211;-72
2021/04/05 22:14:51;;;;;;;1.03;0.80;;;19.20;48.40;;;;;;10485410;28;20220;-69
2021/04/05 22:20:15;;;;;;;1.60;0.83;;;19.20;48.30;;;;;;10492422;28;20196;-70
2021/04/05 22:25:39;;;;;;;1.13;0.80;;;19.20;48.40;;;;;;10492940;28;20216;-70
2021/04/05 22:31:13;;;;;;;2.03;0.70;;;19.10;48.40;;;;;;10493888;28;20189;-71
2021/04/05 22:36:46;;;;;;;1.40;0.70;;;19.10;48.40;;;;;;10492327;28;20598;-70
2021/04/05 22:42:11;;;;;;;1.20;0.80;;;19.20;48.40;;;;;;10480846;28;20223;-71
2021/04/05 22:47:36;;;;;;;1.20;0.90;;;19.20;48.40;;;;;;10492290;28;20216;-70
2021/04/05 22:53:08;;;;;;;1.83;1.00;;;19.20;48.30;;;;;;10463034;22;20229;-65
2021/04/05 22:58:34;;;;;;;1.90;0.93;;;19.20;48.30;;;;;;10431268;28;20219;-69
2021/04/05 23:03:59;;;;;;;2.00;0.70;;;19.20;48.40;;;;;;10450334;28;20252;-69
2021/04/05 23:09:23;;;;;;;1.60;0.77;;;19.10;48.30;;;;;;10457326;28;20204;-69
2021/04/05 23:14:47;;;;;;;1.70;0.90;;;19.10;48.30;;;;;;10458958;28;20213;-69
2021/04/05 23:20:17;;;;;;;1.73;0.87;;;19.10;48.20;;;;;;10457534;28;20276;-69
2021/04/05 23:25:42;;;;;;;1.63;0.83;;;19.10;48.30;;;;;;10456867;28;20217;-67
2021/04/05 23:31:06;;;;;;;1.00;0.70;;;19.10;48.40;;;;;;10457726;28;20602;-69
2021/04/05 23:36:29;;;;;;;1.53;0.80;;;19.10;48.30;;;;;;10457393;28;20610;-68
2021/04/05 23:41:55;;;;;;;1.10;0.60;;;19.10;48.30;;;;;;10457845;28;20714;-69
2021/04/05 23:47:17;;;;;;;1.03;0.60;;;19.10;48.20;;;;;;10455451;28;20217;-66
2021/04/05 23:52:41;;;;;;;2.20;0.70;;;19.10;48.20;;;;;;10417400;28;20569;-69
2021/04/05 23:58:04;;;;;;;1.20;0.63;;;19.10;48.40;;;;;;10414510;28;20201;-72
